Du har inga inställningar för hoppväder.nu

Hoppväder.nu

Senast uppdaterat 04:30

UTC-tid

2021-03-01 kl. 03:30


Sol och måne

Solen går upp 7:07 och går ner 17:19 (beräknade cirkatider)
Nästa fullmåne blir om 27 dagar (2021-03-28)

METAR

ESNZ (Åre/Östersunds)
(10 minuter sedan)
ESNZ 010320Z AUTO 27019KT 9999 BKN130/// OVC160/// 04/M02 Q1018=















TAF

ESNZ (Åre/Östersunds)
ESNZ





Kodnycklar till TAF och METAR






LHP

(Östersund är område se41d i Delområde 4)

Prognos är inte uppdaterad






Preliminär prognos